Time;durP1;ratioP1;P1;durP2;ratioP2;P2;SDS_P1;SDS_P2;PMS_P1;PMS_P2;Temp;Humidity;BMP_temperature;BMP_pressure;BME280_temperature;BME280_humidity;BME280_pressure;Samples;Min_cycle;Max_cycle;Signal;HPM_P1;HPM_P2
2024/02/22 00:00:41;;;;;;;2.50;1.23;;;;;;;8.58;60.68;95257.78;2090193;28;20055;-70
2024/02/22 00:01:42;;;;;;;2.75;1.60;;;;;;;8.58;60.13;95250.00;2090282;28;20041;-64
2024/02/22 00:02:44;;;;;;;3.10;1.40;;;;;;;8.58;59.41;95250.00;2090041;28;20049;-64
2024/02/22 00:03:45;;;;;;;3.47;1.63;;;;;;;8.87;57.30;95246.81;2090297;28;20045;-64
2024/02/22 00:04:46;;;;;;;3.30;1.30;;;;;;;9.00;56.87;95248.66;2090050;28;20040;-65
2024/02/22 00:05:47;;;;;;;2.50;1.00;;;;;;;9.10;55.96;95236.06;2091439;28;20051;-65
2024/02/22 00:06:48;;;;;;;1.77;0.82;;;;;;;9.17;55.64;95249.56;2092157;28;20500;-64
2024/02/22 00:07:51;;;;;;;2.60;1.17;;;;;;;9.19;56.12;95245.09;2091517;28;20045;-65
2024/02/22 00:08:53;;;;;;;1.63;1.00;;;;;;;9.23;55.71;95247.44;2091488;28;20469;-65
2024/02/22 00:09:54;;;;;;;3.45;0.98;;;;;;;9.27;55.51;95246.38;2091900;28;20040;-64
2024/02/22 00:10:57;;;;;;;1.95;0.85;;;;;;;9.26;55.17;95242.09;2091313;28;20125;-64
2024/02/22 00:11:58;;;;;;;2.08;0.90;;;;;;;9.31;54.76;95247.03;2091460;28;20397;-65
2024/02/22 00:12:59;;;;;;;3.40;1.10;;;;;;;9.38;55.08;95243.22;2091530;28;20401;-65
2024/02/22 00:14:01;;;;;;;2.10;1.02;;;;;;;9.38;55.28;95240.63;2091398;28;20045;-64
2024/02/22 00:15:02;;;;;;;1.88;0.93;;;;;;;9.40;54.83;95237.94;2091140;28;20044;-66
2024/02/22 00:16:03;;;;;;;2.60;1.02;;;;;;;9.44;54.93;95239.44;2091571;28;20048;-65
2024/02/22 00:17:04;;;;;;;5.53;1.10;;;;;;;9.44;54.45;95234.25;2091061;28;20053;-65
2024/02/22 00:18:05;;;;;;;1.63;0.80;;;;;;;9.54;53.43;95235.41;2090999;28;20408;-65
2024/02/22 00:19:06;;;;;;;1.55;0.80;;;;;;;9.75;52.46;95230.78;2091825;28;20056;-65
2024/02/22 00:20:08;;;;;;;1.65;0.55;;;;;;;10.02;51.80;95238.75;2091315;28;20040;-65
2024/02/22 00:21:09;;;;;;;1.33;0.63;;;;;;;10.27;49.04;95212.28;2091389;28;20048;-65
2024/02/22 00:22:10;;;;;;;1.52;0.70;;;;;;;10.44;49.74;95246.78;2091362;28;20044;-64
2024/02/22 00:23:11;;;;;;;2.47;0.65;;;;;;;10.58;48.75;95228.63;2091359;28;20059;-65
2024/02/22 00:24:12;;;;;;;1.77;1.25;;;;;;;10.73;48.37;95234.69;2091494;28;20143;-65
2024/02/22 00:25:14;;;;;;;1.17;0.50;;;;;;;10.74;47.86;95221.59;2091185;28;20071;-65
2024/02/22 00:26:15;;;;;;;0.82;0.50;;;;;;;10.71;48.82;95224.38;2090997;28;20055;-65
2024/02/22 00:27:16;;;;;;;0.95;0.60;;;;;;;10.66;49.09;95234.22;2091355;28;20056;-65
2024/02/22 00:28:18;;;;;;;1.30;0.65;;;;;;;10.85;47.21;95111.03;2091140;28;20049;-61
2024/02/22 00:29:21;;;;;;;1.70;0.77;;;;;;;11.05;46.34;95198.97;2091277;28;20485;-64
2024/02/22 00:30:24;;;;;;;0.90;0.60;;;;;;;11.03;46.73;95204.25;2091009;28;20049;-65
2024/02/22 00:31:25;;;;;;;0.75;0.50;;;;;;;10.96;47.51;95196.91;2091080;28;20053;-64
2024/02/22 00:32:26;;;;;;;1.50;0.70;;;;;;;10.88;48.08;95180.97;2090610;28;20048;-66
2024/02/22 00:33:28;;;;;;;1.05;0.55;;;;;;;10.99;46.70;95162.97;2090987;28;20492;-64
2024/02/22 00:34:29;;;;;;;3.30;0.65;;;;;;;10.97;46.82;95170.03;2090976;28;20040;-63
2024/02/22 00:35:30;;;;;;;1.33;0.75;;;;;;;11.02;46.90;95204.34;2091400;28;20061;-64
2024/02/22 00:36:41;;;;;;;2.10;0.95;;;;;;;10.92;48.13;95195.44;2091376;28;20057;-64
2024/02/22 00:37:42;;;;;;;2.17;0.73;;;;;;;10.90;47.33;95187.75;2091307;28;20398;-64
2024/02/22 00:38:44;;;;;;;1.80;0.70;;;;;;;11.01;47.54;95190.53;2091618;28;20045;-65
2024/02/22 00:39:46;;;;;;;2.60;0.75;;;;;;;11.03;46.50;95161.84;2091349;28;20041;-65
2024/02/22 00:40:47;;;;;;;1.00;0.35;;;;;;;11.15;46.27;95176.69;2091317;28;20064;-64
2024/02/22 00:41:49;;;;;;;2.47;0.70;;;;;;;11.18;46.08;95166.09;2091104;28;20033;-64
2024/02/22 00:42:50;;;;;;;1.13;0.70;;;;;;;11.18;46.11;95165.25;2091021;28;20049;-64
2024/02/22 00:43:53;;;;;;;0.73;0.50;;;;;;;11.19;46.39;95166.91;2091196;28;20504;-64
2024/02/22 00:44:54;;;;;;;4.97;0.80;;;;;;;11.18;45.78;95108.91;2091181;28;20531;-63
2024/02/22 00:45:55;;;;;;;0.95;0.50;;;;;;;11.22;46.03;95172.75;2090885;28;20047;-65
2024/02/22 00:46:56;;;;;;;1.92;0.90;;;;;;;11.18;46.29;95153.09;2091746;28;20075;-64
2024/02/22 00:47:58;;;;;;;2.08;0.60;;;;;;;11.14;46.41;95154.22;2091101;28;20043;-65
2024/02/22 00:48:59;;;;;;;2.78;0.70;;;;;;;11.10;46.77;95149.31;2091140;28;20472;-65
2024/02/22 00:50:00;;;;;;;0.75;0.50;;;;;;;11.13;46.91;95155.16;2091399;28;20036;-65
2024/02/22 00:51:02;;;;;;;0.80;0.60;;;;;;;11.14;46.90;95138.63;2091702;28;20086;-64
2024/02/22 00:52:03;;;;;;;3.53;0.80;;;;;;;11.12;46.08;95140.50;2090797;28;20053;-64
2024/02/22 00:53:04;;;;;;;1.35;0.50;;;;;;;11.18;45.76;95139.28;2091085;28;20044;-63
2024/02/22 00:54:06;;;;;;;1.00;0.50;;;;;;;11.19;46.70;95139.16;2091249;28;20401;-64
2024/02/22 00:55:08;;;;;;;1.30;0.55;;;;;;;11.14;46.67;95138.63;2091250;28;20029;-64
2024/02/22 00:56:09;;;;;;;2.78;0.77;;;;;;;11.16;47.12;95161.91;2091052;28;20037;-64
2024/02/22 00:57:10;;;;;;;1.17;0.70;;;;;;;11.14;46.72;95141.22;2091514;28;20052;-64
2024/02/22 00:58:11;;;;;;;1.05;0.50;;;;;;;11.15;46.75;95144.69;2090903;28;20053;-65
2024/02/22 00:59:12;;;;;;;1.42;0.57;;;;;;;11.14;46.90;95143.81;2091525;28;20037;-65
2024/02/22 01:00:14;;;;;;;5.75;0.82;;;;;;;11.11;46.89;95136.22;2091000;28;20044;-65
2024/02/22 01:01:16;;;;;;;1.50;0.63;;;;;;;11.03;47.25;95136.69;2091048;28;20040;-65
2024/02/22 01:02:17;;;;;;;4.18;0.77;;;;;;;11.01;47.62;95141.19;2090790;28;20057;-65
2024/02/22 01:03:18;;;;;;;2.10;0.50;;;;;;;11.03;47.19;95148.84;2090871;28;20408;-65
2024/02/22 01:04:19;;;;;;;1.67;0.70;;;;;;;11.04;47.06;95129.75;2091064;28;20052;-64
2024/02/22 01:05:21;;;;;;;0.73;0.40;;;;;;;11.02;47.61;95123.81;2091138;28;20048;-64
2024/02/22 01:06:22;;;;;;;1.55;0.80;;;;;;;11.11;46.51;95118.03;2091072;28;20087;-66
2024/02/22 01:07:23;;;;;;;1.90;0.70;;;;;;;11.25;46.04;95083.34;2091433;28;20056;-64
2024/02/22 01:08:25;;;;;;;1.40;0.80;;;;;;;11.35;45.74;95096.59;2091205;28;20048;-64
2024/02/22 01:09:26;;;;;;;2.05;0.70;;;;;;;11.29;45.62;95121.22;2091154;28;20044;-64
2024/02/22 01:10:27;;;;;;;1.88;0.60;;;;;;;11.29;46.24;95120.41;2090890;28;20052;-65
2024/02/22 01:11:28;;;;;;;0.88;0.60;;;;;;;11.24;46.57;95111.13;2090666;28;20397;-65
2024/02/22 01:12:29;;;;;;;4.30;0.90;;;;;;;11.29;46.56;95110.00;2090909;28;20044;-64
2024/02/22 01:13:30;;;;;;;1.75;0.50;;;;;;;11.26;46.72;95098.03;2091007;28;20059;-64
2024/02/22 01:14:31;;;;;;;1.45;0.70;;;;;;;11.28;47.04;95116.97;2090678;28;20059;-64
2024/02/22 01:15:35;;;;;;;0.82;0.50;;;;;;;11.26;47.61;95104.06;2091216;28;20048;-64
2024/02/22 01:16:36;;;;;;;4.00;0.90;;;;;;;11.26;46.75;95100.63;2090537;28;20414;-66
2024/02/22 01:17:37;;;;;;;0.85;0.60;;;;;;;11.15;47.95;95105.69;2091000;28;20057;-64
2024/02/22 01:18:38;;;;;;;0.93;0.52;;;;;;;11.19;47.38;95095.00;2090719;28;20049;-64
2024/02/22 01:19:39;;;;;;;1.45;0.60;;;;;;;11.20;47.85;95088.88;2090889;28;20045;-64
2024/02/22 01:20:40;;;;;;;1.92;0.70;;;;;;;11.22;47.54;95087.00;2091224;28;20417;-64
2024/02/22 01:21:41;;;;;;;1.38;0.70;;;;;;;11.25;47.64;95083.34;2090892;28;20056;-64
2024/02/22 01:22:43;;;;;;;1.98;0.80;;;;;;;11.24;47.71;95077.34;2090573;28;20056;-65
2024/02/22 01:23:44;;;;;;;1.77;0.77;;;;;;;11.25;47.75;95091.16;2090965;28;20048;-64
2024/02/22 01:24:45;;;;;;;3.63;0.60;;;;;;;11.15;48.18;95080.53;2091105;28;20041;-64
2024/02/22 01:25:47;;;;;;;1.65;0.50;;;;;;;11.14;48.66;95076.25;2090894;28;20045;-64
2024/02/22 01:26:48;;;;;;;0.90;0.60;;;;;;;11.11;49.06;95073.84;2090784;28;20416;-65
2024/02/22 01:27:49;;;;;;;1.08;0.52;;;;;;;11.08;48.88;95060.25;2090916;28;20127;-65
2024/02/22 01:28:50;;;;;;;0.43;0.40;;;;;;;11.04;49.27;95059.63;2090927;28;20035;-64
2024/02/22 01:29:52;;;;;;;1.13;0.60;;;;;;;11.02;49.13;95053.66;2091244;28;20401;-64
2024/02/22 01:30:53;;;;;;;1.05;0.70;;;;;;;11.06;48.59;95082.88;2090920;28;20021;-64
2024/02/22 01:31:54;;;;;;;1.35;0.70;;;;;;;11.08;48.54;95040.28;2090734;28;20037;-65
2024/02/22 01:32:55;;;;;;;1.42;0.57;;;;;;;11.07;47.99;95027.41;2090372;28;20489;-65
2024/02/22 01:33:56;;;;;;;1.85;0.70;;;;;;;11.04;47.91;95044.03;2090797;28;20499;-64
2024/02/22 01:34:57;;;;;;;1.40;0.70;;;;;;;11.11;48.28;95034.06;2090826;28;20477;-65
2024/02/22 01:35:58;;;;;;;1.70;0.93;;;;;;;11.15;47.59;95033.75;2090661;28;20043;-65
2024/02/22 01:37:00;;;;;;;0.80;0.60;;;;;;;11.15;48.17;95046.75;2091287;28;20056;-65
2024/02/22 01:38:01;;;;;;;1.20;0.70;;;;;;;11.13;48.44;95027.81;2090862;28;20039;-65
2024/02/22 01:39:04;;;;;;;1.42;0.77;;;;;;;11.17;47.62;95008.53;2090721;28;20048;-65
2024/02/22 01:40:08;;;;;;;1.70;0.90;;;;;;;11.15;47.40;94945.41;2090740;28;20041;-64
2024/02/22 01:41:10;;;;;;;2.03;0.90;;;;;;;11.24;46.98;95014.13;2089871;28;20516;-64
2024/02/22 01:42:11;;;;;;;2.50;1.15;;;;;;;11.21;47.30;94994.38;2090141;28;20424;-65
2024/02/22 01:43:12;;;;;;;1.25;0.80;;;;;;;11.22;47.54;94995.22;2090750;28;20051;-65
2024/02/22 01:44:13;;;;;;;2.15;0.90;;;;;;;11.12;48.60;95014.91;2090581;28;20048;-65
2024/02/22 01:45:14;;;;;;;1.45;0.90;;;;;;;11.09;48.60;94991.75;2090698;28;20064;-65
2024/02/22 01:46:15;;;;;;;2.55;0.85;;;;;;;11.07;49.41;94998.81;2091082;28;20056;-65
2024/02/22 01:47:17;;;;;;;1.23;0.60;;;;;;;10.95;49.56;95000.44;2090706;28;20044;-64
2024/02/22 01:48:18;;;;;;;1.23;0.70;;;;;;;10.86;50.27;94990.66;2089553;28;20420;-65
2024/02/22 01:49:19;;;;;;;1.92;0.88;;;;;;;10.82;50.69;94977.88;2090109;28;20052;-65
2024/02/22 01:50:20;;;;;;;1.17;0.70;;;;;;;10.76;50.79;94967.84;2090974;28;20044;-63
2024/02/22 01:51:21;;;;;;;0.80;0.50;;;;;;;10.80;50.80;94977.13;2089790;28;20053;-65
2024/02/22 01:52:22;;;;;;;1.83;0.98;;;;;;;10.76;51.11;94975.63;2089644;28;20436;-65
2024/02/22 01:53:26;;;;;;;2.03;0.70;;;;;;;10.68;52.11;94980.50;2090597;28;20045;-64
2024/02/22 01:54:27;;;;;;;3.03;0.70;;;;;;;10.57;52.39;94986.38;2090491;28;20053;-65
2024/02/22 01:55:28;;;;;;;1.02;0.60;;;;;;;10.46;53.56;94985.38;2089557;28;20044;-66
2024/02/22 01:56:29;;;;;;;0.82;0.50;;;;;;;10.38;53.75;94978.91;2082223;28;20049;-65
2024/02/22 01:57:30;;;;;;;0.68;0.60;;;;;;;10.34;54.29;94994.75;2081170;28;20156;-65
2024/02/22 01:58:32;;;;;;;1.02;0.70;;;;;;;10.33;54.84;94985.31;2081190;28;20049;-65
2024/02/22 01:59:37;;;;;;;1.20;0.80;;;;;;;10.27;54.91;94991.72;2081987;28;20049;-65
2024/02/22 02:00:38;;;;;;;1.60;0.80;;;;;;;10.23;55.48;94972.03;2089873;28;20492;-66
2024/02/22 02:01:41;;;;;;;2.95;0.70;;;;;;;10.22;55.43;94972.97;2081456;28;20402;-65
2024/02/22 02:02:43;;;;;;;0.98;0.60;;;;;;;10.12;55.87;94928.59;2081747;28;20501;-63
2024/02/22 02:03:44;;;;;;;1.75;0.82;;;;;;;10.13;55.94;94924.25;2090387;28;20064;-65
2024/02/22 02:04:46;;;;;;;1.40;0.57;;;;;;;10.21;55.27;94968.72;2090634;28;20037;-65
2024/02/22 02:05:47;;;;;;;1.17;0.63;;;;;;;10.18;55.79;94973.25;2089506;28;20053;-65
2024/02/22 02:06:48;;;;;;;1.00;0.60;;;;;;;10.16;56.70;94973.38;2089846;28;20045;-65
2024/02/22 02:07:50;;;;;;;2.05;0.70;;;;;;;10.12;56.20;94959.72;2090519;28;20404;-65
2024/02/22 02:08:51;;;;;;;0.82;0.63;;;;;;;10.12;56.59;94974.47;2090633;28;20045;-65
2024/02/22 02:09:52;;;;;;;2.53;0.70;;;;;;;10.05;56.73;94978.34;2090499;28;20045;-65
2024/02/22 02:10:53;;;;;;;1.25;0.60;;;;;;;10.03;56.73;94981.06;2090964;28;20037;-65
2024/02/22 02:11:54;;;;;;;1.52;0.55;;;;;;;10.02;57.30;94981.97;2090601;28;20052;-65
2024/02/22 02:13:02;;;;;;;2.63;0.75;;;;;;;10.01;57.64;94989.84;2090653;28;20029;-65
2024/02/22 02:14:03;;;;;;;0.98;0.40;;;;;;;9.99;57.26;94981.34;2090601;28;20408;-65
2024/02/22 02:15:05;;;;;;;3.65;0.65;;;;;;;10.01;57.97;94987.28;2090666;28;20052;-65
2024/02/22 02:16:06;;;;;;;2.03;0.50;;;;;;;10.00;58.10;94970.06;2090187;28;20037;-66
2024/02/22 02:17:07;;;;;;;0.90;0.50;;;;;;;9.98;58.27;94984.88;2090101;28;20048;-65
2024/02/22 02:18:08;;;;;;;1.17;0.50;;;;;;;9.97;58.49;94972.81;2090395;28;20033;-64
2024/02/22 02:19:11;;;;;;;1.10;0.52;;;;;;;9.91;59.47;94987.81;2090927;28;20424;-64
2024/02/22 02:20:12;;;;;;;1.63;0.40;;;;;;;9.87;59.82;94985.50;2082626;28;20074;-65
2024/02/22 02:21:33;;;;;;;0.98;0.50;;;;;;;9.83;59.99;94992.63;2074381;28;20053;-65
2024/02/22 02:22:50;;;;;;;1.05;0.55;;;;;;;9.78;60.85;94986.06;2076817;28;20049;-65
2024/02/22 02:24:11;;;;;;;0.63;0.25;;;;;;;9.77;60.73;94997.34;2087380;28;20033;-65
2024/02/22 02:25:12;;;;;;;0.98;0.35;;;;;;;9.78;60.55;94970.50;2094848;28;20517;-65
2024/02/22 02:26:13;;;;;;;0.70;0.47;;;;;;;9.77;60.73;94982.63;2090512;28;20060;-65
2024/02/22 02:27:16;;;;;;;1.33;0.30;;;;;;;9.77;61.05;94971.44;2089613;28;20100;-64
2024/02/22 02:28:17;;;;;;;0.30;0.20;;;;;;;9.72;62.24;94987.25;2081233;28;20045;-64
2024/02/22 02:29:18;;;;;;;0.90;0.30;;;;;;;9.66;62.56;94978.09;2089961;28;20041;-65
2024/02/22 02:30:19;;;;;;;0.88;0.38;;;;;;;9.62;63.10;94986.13;2090782;28;20516;-65
2024/02/22 02:31:21;;;;;;;1.15;0.40;;;;;;;9.59;63.13;94994.09;2090731;28;20052;-68
2024/02/22 02:32:25;;;;;;;1.70;0.75;;;;;;;9.56;63.56;94973.53;2090019;28;20056;-65
2024/02/22 02:33:26;;;;;;;0.50;0.30;;;;;;;9.54;63.64;94967.63;2090006;28;20060;-65
2024/02/22 02:34:27;;;;;;;0.60;0.40;;;;;;;9.50;64.43;94975.56;2090270;28;20057;-65
2024/02/22 02:35:28;;;;;;;0.63;0.30;;;;;;;9.46;64.78;94987.06;2090456;28;20037;-65
2024/02/22 02:36:29;;;;;;;0.95;0.55;;;;;;;9.39;65.01;94979.72;2090139;28;20053;-65
2024/02/22 02:37:30;;;;;;;1.58;0.30;;;;;;;9.41;65.31;94978.72;2090901;28;20048;-65
2024/02/22 02:38:31;;;;;;;2.83;0.40;;;;;;;9.42;65.44;94971.78;2090106;28;20049;-65
2024/02/22 02:39:32;;;;;;;1.77;0.25;;;;;;;9.43;64.92;94970.84;2090245;28;20052;-65
2024/02/22 02:40:33;;;;;;;0.82;0.40;;;;;;;9.40;65.28;94963.25;2090696;28;20397;-65
2024/02/22 02:41:34;;;;;;;1.10;0.30;;;;;;;9.34;65.90;94964.44;2090401;28;20052;-65
2024/02/22 02:42:36;;;;;;;0.70;0.35;;;;;;;9.24;66.92;94932.22;2090023;28;20055;-65
2024/02/22 02:43:37;;;;;;;0.60;0.28;;;;;;;9.21;67.00;94919.47;2090186;28;20413;-65
2024/02/22 02:44:38;;;;;;;0.50;0.28;;;;;;;9.14;67.57;94920.72;2090307;28;20056;-65
2024/02/22 02:45:39;;;;;;;0.40;0.20;;;;;;;9.12;68.31;94926.03;2090737;28;20059;-66
2024/02/22 02:46:40;;;;;;;1.10;0.40;;;;;;;9.18;67.13;94910.13;2090307;28;20048;-66
2024/02/22 02:47:41;;;;;;;0.63;0.30;;;;;;;9.23;66.55;94900.31;2090248;28;20040;-66
2024/02/22 02:48:42;;;;;;;0.57;0.30;;;;;;;9.27;66.55;94917.34;2090366;28;20089;-65
2024/02/22 02:49:43;;;;;;;1.83;0.50;;;;;;;9.30;66.20;94925.84;2089774;28;20041;-65
2024/02/22 02:50:47;;;;;;;0.30;0.30;;;;;;;9.30;66.76;94915.47;2090091;28;20052;-65
2024/02/22 02:51:48;;;;;;;0.30;0.20;;;;;;;9.30;66.50;94921.50;2089903;28;20052;-65
2024/02/22 02:52:51;;;;;;;0.60;0.40;;;;;;;9.31;65.93;94933.53;2090667;28;20053;-65
2024/02/22 02:53:52;;;;;;;0.45;0.38;;;;;;;9.27;66.30;94917.34;2089779;28;20047;-65
2024/02/22 02:54:53;;;;;;;1.70;0.40;;;;;;;9.26;66.44;94925.22;2089646;28;20045;-65
2024/02/22 02:55:54;;;;;;;0.50;0.30;;;;;;;9.25;66.67;94926.97;2090361;28;20049;-66
2024/02/22 02:56:55;;;;;;;0.63;0.30;;;;;;;9.23;66.30;94926.22;2090198;28;20049;-65
2024/02/22 02:57:58;;;;;;;0.43;0.25;;;;;;;9.25;66.42;94920.97;2090575;28;20543;-65
2024/02/22 02:58:59;;;;;;;0.55;0.30;;;;;;;9.26;66.05;94926.03;2090205;28;20051;-64
2024/02/22 03:00:00;;;;;;;0.30;0.20;;;;;;;9.23;66.61;94938.34;2089983;28;20056;-65
2024/02/22 03:01:01;;;;;;;0.20;0.10;;;;;;;9.21;66.65;94922.06;2089842;28;20552;-65
2024/02/22 03:02:02;;;;;;;1.50;0.40;;;;;;;9.16;67.55;94924.06;2089110;28;20053;-65
2024/02/22 03:03:03;;;;;;;0.85;0.40;;;;;;;9.11;67.61;94926.09;2089488;28;20053;-66
2024/02/22 03:04:04;;;;;;;0.52;0.40;;;;;;;9.08;68.37;94915.91;2090222;28;20504;-64
2024/02/22 03:05:06;;;;;;;0.90;0.25;;;;;;;9.06;68.37;94913.41;2090302;28;20037;-65
2024/02/22 03:06:08;;;;;;;0.57;0.30;;;;;;;9.00;68.40;94919.78;2090323;28;20063;-66
2024/02/22 03:07:09;;;;;;;0.30;0.30;;;;;;;9.01;68.51;94913.69;2090064;28;20405;-65
2024/02/22 03:08:10;;;;;;;0.73;0.40;;;;;;;8.99;68.42;94912.94;2090252;28;20033;-65
2024/02/22 03:09:11;;;;;;;1.00;0.30;;;;;;;8.98;68.71;94911.28;2090226;28;20044;-65
2024/02/22 03:10:12;;;;;;;0.52;0.38;;;;;;;8.96;68.56;94897.59;2089772;28;20056;-65
2024/02/22 03:11:13;;;;;;;1.17;0.38;;;;;;;8.99;68.08;94906.94;2090308;28;20032;-65
2024/02/22 03:12:14;;;;;;;0.68;0.30;;;;;;;8.96;68.29;94894.19;2090335;28;20056;-65
2024/02/22 03:13:15;;;;;;;0.77;0.43;;;;;;;8.97;68.22;94893.25;2090610;28;20401;-65
2024/02/22 03:14:16;;;;;;;1.10;0.50;;;;;;;9.01;67.96;94903.34;2090339;28;20036;-65
2024/02/22 03:15:17;;;;;;;1.20;0.85;;;;;;;9.00;67.58;94900.81;2090164;28;20056;-65
2024/02/22 03:16:19;;;;;;;1.75;0.45;;;;;;;9.02;67.36;94892.03;2090028;28;20408;-65
2024/02/22 03:17:23;;;;;;;0.90;0.38;;;;;;;9.04;67.29;94887.63;2089208;28;20037;-65
2024/02/22 03:18:25;;;;;;;0.73;0.60;;;;;;;9.03;66.80;94888.56;2089460;28;20044;-65
2024/02/22 03:19:26;;;;;;;0.85;0.40;;;;;;;9.06;67.17;94892.69;2090181;28;20052;-65
2024/02/22 03:20:28;;;;;;;0.57;0.35;;;;;;;9.08;66.31;94888.25;2090038;28;20056;-65
2024/02/22 03:21:29;;;;;;;0.88;0.40;;;;;;;9.07;66.06;94878.00;2090284;28;20400;-65
2024/02/22 03:22:30;;;;;;;1.48;0.70;;;;;;;9.10;66.00;94889.00;2089999;28;20041;-65
2024/02/22 03:23:32;;;;;;;0.47;0.32;;;;;;;9.11;66.40;94882.06;2089865;28;20053;-65
2024/02/22 03:24:33;;;;;;;1.88;0.40;;;;;;;9.09;66.35;94882.19;2090127;28;20045;-65
2024/02/22 03:25:34;;;;;;;0.90;0.50;;;;;;;9.11;65.18;94885.47;2090556;28;20055;-65
2024/02/22 03:26:36;;;;;;;1.02;0.32;;;;;;;9.14;65.78;94879.28;2090644;28;20060;-65
2024/02/22 03:27:37;;;;;;;1.58;0.40;;;;;;;9.15;64.46;94876.63;2089821;28;20056;-65
2024/02/22 03:28:39;;;;;;;0.55;0.38;;;;;;;9.16;65.10;94883.47;2090057;28;20048;-65
2024/02/22 03:29:41;;;;;;;0.98;0.50;;;;;;;9.16;64.88;94883.47;2090218;28;20068;-65
2024/02/22 03:30:42;;;;;;;1.75;0.60;;;;;;;9.20;64.84;94882.38;2089824;28;20052;-65
2024/02/22 03:31:43;;;;;;;0.90;0.50;;;;;;;9.24;63.92;94877.81;2090149;28;20045;-65
2024/02/22 03:32:44;;;;;;;2.97;0.70;;;;;;;9.26;63.78;94891.53;2089286;28;20045;-66
2024/02/22 03:33:45;;;;;;;1.20;0.50;;;;;;;9.22;63.72;94880.53;2090233;28;20053;-66
2024/02/22 03:34:47;;;;;;;2.30;0.50;;;;;;;9.22;64.90;94883.13;2090000;28;20045;-65
2024/02/22 03:35:49;;;;;;;1.20;0.60;;;;;;;9.22;64.53;94888.28;2089968;28;20416;-66
2024/02/22 03:36:50;;;;;;;1.08;0.47;;;;;;;9.19;64.71;94885.03;2090000;28;20457;-66
2024/02/22 03:37:51;;;;;;;0.88;0.45;;;;;;;9.14;64.24;94885.34;2090048;28;20033;-67
2024/02/22 03:38:53;;;;;;;1.00;0.60;;;;;;;9.11;65.13;94888.06;2090069;28;20064;-66
2024/02/22 03:39:54;;;;;;;1.13;0.60;;;;;;;9.11;64.85;94880.31;2091690;28;20474;-66
2024/02/22 03:40:55;;;;;;;0.90;0.50;;;;;;;9.09;65.04;94883.91;2091767;28;20048;-66
2024/02/22 03:41:56;;;;;;;1.55;0.63;;;;;;;9.05;65.51;94891.03;2091671;28;20053;-67
2024/02/22 03:42:57;;;;;;;0.95;0.60;;;;;;;9.01;65.91;94895.56;2091435;28;20044;-67
2024/02/22 03:43:59;;;;;;;2.60;0.88;;;;;;;8.96;66.11;94882.06;2092062;28;20396;-68
2024/02/22 03:45:01;;;;;;;1.02;0.73;;;;;;;8.99;65.71;94888.81;2091671;28;20032;-67
2024/02/22 03:46:02;;;;;;;1.48;0.68;;;;;;;8.94;66.08;94891.66;2092343;28;20056;-68
2024/02/22 03:47:03;;;;;;;2.20;0.65;;;;;;;8.94;66.50;94894.25;2092190;28;20473;-68
2024/02/22 03:48:05;;;;;;;0.80;0.50;;;;;;;8.90;66.05;94892.78;2091615;28;20404;-68
2024/02/22 03:49:06;;;;;;;1.55;0.60;;;;;;;8.89;67.25;94896.28;2091638;28;20044;-69
2024/02/22 03:50:08;;;;;;;3.20;0.63;;;;;;;8.81;66.41;94877.75;2092053;28;20048;-70
2024/02/22 03:51:09;;;;;;;2.15;0.85;;;;;;;8.82;67.86;94884.59;2092030;28;20400;-70
2024/02/22 03:52:10;;;;;;;1.95;0.52;;;;;;;8.86;65.05;94865.38;2093206;28;20045;-69
2024/02/22 03:56:33;;;;;;;2.22;1.00;;;;;;;8.81;66.21;94880.34;2094277;28;20472;-70
2024/02/22 03:57:34;;;;;;;2.25;0.90;;;;;;;8.75;65.26;94872.94;2101667;28;20373;-70
2024/02/22 04:01:23;;;;;;;2.72;1.10;;;;;;;8.55;68.70;94869.75;2106466;28;20040;-70
2024/02/22 04:02:24;;;;;;;3.65;1.08;;;;;;;8.47;67.82;94860.75;2101604;28;20408;-70
2024/02/22 04:03:57;;;;;;;4.10;1.45;;;;;;;8.46;68.89;94872.84;2100498;28;20630;-71
2024/02/22 04:05:36;;;;;;;2.20;1.10;;;;;;;8.45;68.54;94865.19;2092825;28;20053;-70
2024/02/22 04:06:37;;;;;;;3.17;1.48;;;;;;;8.41;69.31;94867.09;2092891;28;20053;-70
2024/02/22 04:16:10;;;;;;;2.85;1.05;;;;;;;8.36;67.21;94845.81;2096395;28;20037;-70
2024/02/22 04:17:11;;;;;;;1.80;1.00;;;;;;;8.36;68.55;94851.81;2094081;28;20048;-70
2024/02/22 04:21:57;;;;;;;2.58;1.50;;;;;;;8.27;65.91;94852.34;2098091;28;20041;-70
2024/02/22 04:26:30;;;;;;;3.55;1.40;;;;;;;8.22;69.30;94859.53;2098625;28;20040;-70
2024/02/22 04:28:21;;;;;;;3.47;1.45;;;;;;;8.05;70.37;94857.06;2086433;28;20146;-70
2024/02/22 04:29:27;;;;;;;3.53;1.30;;;;;;;8.09;71.13;94853.38;2093080;28;20044;-70
2024/02/22 04:30:28;;;;;;;4.13;1.83;;;;;;;8.06;71.67;94859.53;2094378;28;20049;-70
2024/02/22 04:34:07;;;;;;;2.60;1.40;;;;;;;7.97;71.49;94851.47;2094623;28;20048;-70
2024/02/22 04:35:09;;;;;;;4.22;1.38;;;;;;;8.06;69.93;94851.78;2093903;28;20052;-69
2024/02/22 04:38:47;;;;;;;2.35;1.30;;;;;;;7.98;70.04;94846.19;2094113;28;20040;-69
2024/02/22 04:40:13;;;;;;;2.25;1.08;;;;;;;8.01;70.28;94835.69;2093891;28;20044;-69
2024/02/22 04:41:30;;;;;;;3.90;1.20;;;;;;;8.04;70.37;94839.84;2093378;28;20041;-69
2024/02/22 04:42:31;;;;;;;4.25;1.38;;;;;;;8.07;70.10;94843.13;2092794;28;20043;-69
2024/02/22 04:46:07;;;;;;;2.28;1.05;;;;;;;7.95;71.12;94843.78;2095017;28;20453;-69
2024/02/22 04:47:08;;;;;;;2.50;1.70;;;;;;;7.90;73.22;94844.03;2093201;28;20025;-70
2024/02/22 04:48:33;;;;;;;3.00;1.70;;;;;;;7.88;73.62;94830.34;2096688;28;20040;-71
2024/02/22 04:49:34;;;;;;;2.60;1.17;;;;;;;7.90;72.97;94832.88;2094479;28;20041;-69
2024/02/22 04:51:13;;;;;;;4.45;1.60;;;;;;;7.88;73.65;94834.69;2093774;28;20485;-69
2024/02/22 04:52:39;;;;;;;;;;;;;;;7.86;74.42;94826.22;2094707;28;20033;-70
2024/02/22 04:54:32;;;;;;;4.32;1.67;;;;;;;7.78;74.54;94820.59;2094014;28;19913;-69
2024/02/22 04:55:46;;;;;;;2.05;1.23;;;;;;;7.80;74.36;94818.78;2093357;28;20045;-69
2024/02/22 04:56:47;;;;;;;3.33;1.42;;;;;;;7.84;75.94;94828.88;2093486;28;20053;-70
2024/02/22 04:58:24;;;;;;;2.13;1.20;;;;;;;7.79;74.70;94835.22;2096180;28;20396;-70
2024/02/22 04:59:25;;;;;;;3.33;1.90;;;;;;;7.72;76.78;94827.81;2091664;28;20052;-70
2024/02/22 05:00:26;;;;;;;3.00;1.33;;;;;;;7.70;76.70;94826.22;2092119;28;20055;-68
2024/02/22 05:01:27;;;;;;;3.38;1.70;;;;;;;7.71;77.23;94830.47;2093446;28;20056;-70
2024/02/22 05:05:00;;;;;;;3.15;1.38;;;;;;;7.57;78.33;94807.97;2094607;28;20052;-70
2024/02/22 05:06:01;;;;;;;2.72;1.35;;;;;;;7.62;77.26;94824.03;2103061;28;20033;-71
2024/02/22 05:07:32;;;;;;;3.72;1.80;;;;;;;7.63;79.10;94830.88;2102109;28;20036;-69
2024/02/22 05:08:33;;;;;;;3.15;1.30;;;;;;;7.57;78.63;94825.22;2102023;28;20056;-71
2024/02/22 05:09:35;;;;;;;3.33;1.92;;;;;;;7.54;80.21;94820.19;2100419;28;20044;-70
2024/02/22 05:10:38;;;;;;;2.90;1.73;;;;;;;7.49;81.13;94834.19;2099501;28;20045;-70
2024/02/22 05:11:48;;;;;;;2.28;1.40;;;;;;;7.50;81.12;94828.09;2100672;28;20041;-70
2024/02/22 05:12:49;;;;;;;3.38;1.50;;;;;;;7.51;81.21;94823.78;2100097;28;20432;-70
2024/02/22 05:13:53;;;;;;;3.75;1.75;;;;;;;7.46;81.11;94818.03;2099356;28;20047;-70
2024/02/22 05:14:56;;;;;;;3.13;1.45;;;;;;;7.47;81.53;94824.88;2099015;28;20056;-70
2024/02/22 05:15:58;;;;;;;3.65;1.70;;;;;;;7.44;81.88;94820.69;2099410;28;20040;-70
2024/02/22 05:16:59;;;;;;;3.80;1.98;;;;;;;7.45;82.79;94818.94;2100648;28;20060;-70
2024/02/22 05:18:00;;;;;;;5.60;2.00;;;;;;;7.42;83.72;94822.53;2100779;28;20431;-70
2024/02/22 05:20:56;;;;;;;3.13;1.77;;;;;;;7.32;84.40;94811.00;2099538;28;20408;-70
2024/02/22 05:21:58;;;;;;;5.25;1.92;;;;;;;7.34;84.41;94819.50;2099077;28;20044;-70
2024/02/22 05:22:59;;;;;;;3.40;1.77;;;;;;;7.31;85.64;94814.50;2098681;28;20047;-70
2024/02/22 05:24:12;;;;;;;3.45;1.65;;;;;;;7.28;85.63;94815.50;2099429;28;20056;-70
2024/02/22 05:25:13;;;;;;;5.53;1.80;;;;;;;7.26;86.21;94806.19;2099386;28;20036;-69
2024/02/22 05:26:14;;;;;;;5.40;2.00;;;;;;;7.24;86.89;94808.00;2098823;28;20052;-70
2024/02/22 05:27:15;;;;;;;3.55;1.70;;;;;;;7.23;86.49;94807.16;2098540;28;20048;-70
2024/02/22 05:28:16;;;;;;;4.47;2.75;;;;;;;7.21;88.11;94805.59;2098541;28;20040;-70
2024/02/22 05:29:17;;;;;;;4.90;2.20;;;;;;;7.17;88.22;94799.75;2098528;28;20048;-70
2024/02/22 05:30:18;;;;;;;4.75;1.70;;;;;;;7.15;89.85;94805.91;2098838;28;20052;-69
2024/02/22 05:31:24;;;;;;;3.08;1.60;;;;;;;7.09;89.79;94799.34;2099418;28;20039;-69
2024/02/22 05:32:25;;;;;;;3.95;1.77;;;;;;;7.08;89.50;94797.66;2099014;28;20044;-69
2024/02/22 05:33:26;;;;;;;3.15;1.67;;;;;;;7.07;90.10;94801.16;2097711;28;20048;-66